sensor_id;sensor_type;location;lat;lon;timestamp;P1;durP1;ratioP1;P2;durP2;ratioP2
50547;SDS011;38013;48.810;8.818;2023-05-08T00:01:25;4.53;;;2.22;;
50547;SDS011;38013;48.810;8.818;2023-05-08T00:03:55;5.53;;;2.55;;
50547;SDS011;38013;48.810;8.818;2023-05-08T00:06:22;4.20;;;2.50;;
50547;SDS011;38013;48.810;8.818;2023-05-08T00:08:49;3.75;;;2.45;;
50547;SDS011;38013;48.810;8.818;2023-05-08T00:11:17;5.53;;;2.75;;
50547;SDS011;38013;48.810;8.818;2023-05-08T00:13:44;4.15;;;3.00;;
50547;SDS011;38013;48.810;8.818;2023-05-08T00:16:11;8.18;;;3.45;;
50547;SDS011;38013;48.810;8.818;2023-05-08T00:18:38;7.72;;;3.28;;
50547;SDS011;38013;48.810;8.818;2023-05-08T00:21:05;6.00;;;3.47;;
50547;SDS011;38013;48.810;8.818;2023-05-08T00:23:32;7.15;;;3.35;;
50547;SDS011;38013;48.810;8.818;2023-05-08T00:25:59;4.75;;;3.20;;
50547;SDS011;38013;48.810;8.818;2023-05-08T00:28:26;5.20;;;3.30;;
50547;SDS011;38013;48.810;8.818;2023-05-08T00:30:53;7.35;;;3.88;;
50547;SDS011;38013;48.810;8.818;2023-05-08T00:33:20;5.55;;;3.63;;
50547;SDS011;38013;48.810;8.818;2023-05-08T00:35:47;4.88;;;3.38;;
50547;SDS011;38013;48.810;8.818;2023-05-08T00:38:14;5.32;;;3.95;;
50547;SDS011;38013;48.810;8.818;2023-05-08T00:40:41;6.45;;;4.35;;
50547;SDS011;38013;48.810;8.818;2023-05-08T00:43:08;5.35;;;4.35;;
50547;SDS011;38013;48.810;8.818;2023-05-08T00:45:36;5.00;;;2.45;;
50547;SDS011;38013;48.810;8.818;2023-05-08T00:48:05;5.45;;;2.17;;
50547;SDS011;38013;48.810;8.818;2023-05-08T00:50:32;3.97;;;2.50;;
50547;SDS011;38013;48.810;8.818;2023-05-08T00:53:00;6.75;;;2.58;;
50547;SDS011;38013;48.810;8.818;2023-05-08T00:55:29;12.07;;;2.80;;
50547;SDS011;38013;48.810;8.818;2023-05-08T00:57:58;6.00;;;3.40;;
50547;SDS011;38013;48.810;8.818;2023-05-08T01:00:25;5.28;;;3.55;;
50547;SDS011;38013;48.810;8.818;2023-05-08T01:02:52;5.20;;;3.03;;
50547;SDS011;38013;48.810;8.818;2023-05-08T01:05:19;4.45;;;2.88;;
50547;SDS011;38013;48.810;8.818;2023-05-08T01:07:46;5.32;;;2.95;;
50547;SDS011;38013;48.810;8.818;2023-05-08T01:10:14;8.23;;;3.00;;
50547;SDS011;38013;48.810;8.818;2023-05-08T01:15:58;4.32;;;2.97;;
50547;SDS011;38013;48.810;8.818;2023-05-08T01:18:36;7.95;;;3.03;;
50547;SDS011;38013;48.810;8.818;2023-05-08T01:21:33;7.80;;;2.63;;
50547;SDS011;38013;48.810;8.818;2023-05-08T01:24:18;6.47;;;3.00;;
50547;SDS011;38013;48.810;8.818;2023-05-08T01:36:16;5.93;;;3.00;;
50547;SDS011;38013;48.810;8.818;2023-05-08T01:39:13;7.27;;;3.10;;
50547;SDS011;38013;48.810;8.818;2023-05-08T01:41:56;8.65;;;2.53;;
50547;SDS011;38013;48.810;8.818;2023-05-08T01:44:40;5.88;;;2.80;;
50547;SDS011;38013;48.810;8.818;2023-05-08T01:47:32;6.28;;;3.65;;
50547;SDS011;38013;48.810;8.818;2023-05-08T01:50:05;4.93;;;3.50;;
50547;SDS011;38013;48.810;8.818;2023-05-08T01:52:50;5.93;;;3.42;;
50547;SDS011;38013;48.810;8.818;2023-05-08T01:55:25;5.78;;;3.67;;
50547;SDS011;38013;48.810;8.818;2023-05-08T01:57:57;5.43;;;3.75;;
50547;SDS011;38013;48.810;8.818;2023-05-08T02:00:24;7.00;;;4.15;;
50547;SDS011;38013;48.810;8.818;2023-05-08T02:02:53;5.47;;;3.80;;
50547;SDS011;38013;48.810;8.818;2023-05-08T02:05:23;5.65;;;3.95;;
50547;SDS011;38013;48.810;8.818;2023-05-08T02:07:52;6.63;;;3.80;;
50547;SDS011;38013;48.810;8.818;2023-05-08T02:10:22;5.43;;;3.65;;
50547;SDS011;38013;48.810;8.818;2023-05-08T02:12:50;7.60;;;3.80;;
50547;SDS011;38013;48.810;8.818;2023-05-08T02:15:18;5.68;;;3.60;;
50547;SDS011;38013;48.810;8.818;2023-05-08T02:17:47;6.88;;;4.20;;
50547;SDS011;38013;48.810;8.818;2023-05-08T02:20:16;6.43;;;3.83;;
50547;SDS011;38013;48.810;8.818;2023-05-08T02:22:46;10.63;;;4.28;;
50547;SDS011;38013;48.810;8.818;2023-05-08T02:25:15;5.45;;;4.10;;
50547;SDS011;38013;48.810;8.818;2023-05-08T02:27:46;7.20;;;4.72;;
50547;SDS011;38013;48.810;8.818;2023-05-08T02:30:16;6.68;;;5.28;;
50547;SDS011;38013;48.810;8.818;2023-05-08T02:32:43;6.07;;;4.18;;
50547;SDS011;38013;48.810;8.818;2023-05-08T02:35:17;7.68;;;5.35;;
50547;SDS011;38013;48.810;8.818;2023-05-08T02:37:48;7.07;;;5.20;;
50547;SDS011;38013;48.810;8.818;2023-05-08T02:40:19;6.15;;;4.43;;
50547;SDS011;38013;48.810;8.818;2023-05-08T02:42:48;5.67;;;3.60;;
50547;SDS011;38013;48.810;8.818;2023-05-08T02:45:15;4.45;;;2.92;;
50547;SDS011;38013;48.810;8.818;2023-05-08T02:53:49;5.20;;;2.90;;
50547;SDS011;38013;48.810;8.818;2023-05-08T02:56:38;4.60;;;3.28;;
50547;SDS011;38013;48.810;8.818;2023-05-08T02:59:19;5.43;;;3.45;;
50547;SDS011;38013;48.810;8.818;2023-05-08T03:04:35;7.57;;;4.13;;
50547;SDS011;38013;48.810;8.818;2023-05-08T03:07:08;6.70;;;4.05;;
50547;SDS011;38013;48.810;8.818;2023-05-08T03:09:42;7.18;;;4.53;;
50547;SDS011;38013;48.810;8.818;2023-05-08T03:12:15;5.95;;;4.10;;
50547;SDS011;38013;48.810;8.818;2023-05-08T03:15:01;6.32;;;4.75;;
50547;SDS011;38013;48.810;8.818;2023-05-08T03:17:34;7.55;;;4.78;;
50547;SDS011;38013;48.810;8.818;2023-05-08T03:20:05;8.77;;;5.00;;
50547;SDS011;38013;48.810;8.818;2023-05-08T03:22:35;6.68;;;4.75;;
50547;SDS011;38013;48.810;8.818;2023-05-08T03:25:04;7.75;;;5.25;;
50547;SDS011;38013;48.810;8.818;2023-05-08T03:27:35;6.90;;;5.03;;
50547;SDS011;38013;48.810;8.818;2023-05-08T03:30:03;5.57;;;3.88;;
50547;SDS011;38013;48.810;8.818;2023-05-08T03:32:34;5.95;;;4.65;;
50547;SDS011;38013;48.810;8.818;2023-05-08T03:35:02;7.13;;;4.07;;
50547;SDS011;38013;48.810;8.818;2023-05-08T03:37:31;7.20;;;4.80;;
50547;SDS011;38013;48.810;8.818;2023-05-08T03:39:58;6.68;;;4.78;;
50547;SDS011;38013;48.810;8.818;2023-05-08T03:42:25;6.93;;;5.00;;
50547;SDS011;38013;48.810;8.818;2023-05-08T03:44:52;5.72;;;4.47;;
50547;SDS011;38013;48.810;8.818;2023-05-08T03:47:20;5.70;;;4.03;;
50547;SDS011;38013;48.810;8.818;2023-05-08T03:49:49;7.10;;;5.50;;
50547;SDS011;38013;48.810;8.818;2023-05-08T03:52:16;7.20;;;5.57;;
50547;SDS011;38013;48.810;8.818;2023-05-08T03:54:43;9.30;;;5.55;;
50547;SDS011;38013;48.810;8.818;2023-05-08T03:57:11;7.10;;;5.45;;
50547;SDS011;38013;48.810;8.818;2023-05-08T04:02:49;8.35;;;5.00;;
50547;SDS011;38013;48.810;8.818;2023-05-08T04:05:27;5.55;;;4.38;;
50547;SDS011;38013;48.810;8.818;2023-05-08T04:11:25;6.20;;;4.20;;
50547;SDS011;38013;48.810;8.818;2023-05-08T04:14:03;7.43;;;4.28;;
50547;SDS011;38013;48.810;8.818;2023-05-08T04:16:37;5.65;;;4.22;;
50547;SDS011;38013;48.810;8.818;2023-05-08T04:19:10;8.13;;;4.28;;
50547;SDS011;38013;48.810;8.818;2023-05-08T04:21:48;13.98;;;4.18;;
50547;SDS011;38013;48.810;8.818;2023-05-08T04:24:17;16.27;;;4.05;;
50547;SDS011;38013;48.810;8.818;2023-05-08T04:26:46;5.32;;;4.13;;
50547;SDS011;38013;48.810;8.818;2023-05-08T04:29:15;5.30;;;3.97;;
50547;SDS011;38013;48.810;8.818;2023-05-08T04:31:43;8.15;;;4.25;;
50547;SDS011;38013;48.810;8.818;2023-05-08T04:34:11;6.38;;;4.22;;
50547;SDS011;38013;48.810;8.818;2023-05-08T04:36:38;6.75;;;4.60;;
50547;SDS011;38013;48.810;8.818;2023-05-08T04:39:06;5.85;;;4.30;;
50547;SDS011;38013;48.810;8.818;2023-05-08T04:41:33;7.15;;;4.60;;
50547;SDS011;38013;48.810;8.818;2023-05-08T04:44:02;6.38;;;4.28;;
50547;SDS011;38013;48.810;8.818;2023-05-08T04:46:31;6.25;;;3.95;;
50547;SDS011;38013;48.810;8.818;2023-05-08T04:48:57;5.22;;;3.85;;
50547;SDS011;38013;48.810;8.818;2023-05-08T04:51:27;5.25;;;3.83;;
50547;SDS011;38013;48.810;8.818;2023-05-08T04:53:54;6.72;;;4.10;;
50547;SDS011;38013;48.810;8.818;2023-05-08T04:56:21;6.32;;;3.47;;
50547;SDS011;38013;48.810;8.818;2023-05-08T04:58:48;5.93;;;3.97;;
50547;SDS011;38013;48.810;8.818;2023-05-08T05:01:16;5.13;;;3.95;;
50547;SDS011;38013;48.810;8.818;2023-05-08T05:03:43;5.25;;;4.10;;
50547;SDS011;38013;48.810;8.818;2023-05-08T05:06:11;5.13;;;3.78;;
50547;SDS011;38013;48.810;8.818;2023-05-08T05:08:38;5.22;;;4.10;;
50547;SDS011;38013;48.810;8.818;2023-05-08T05:11:05;5.68;;;4.35;;
50547;SDS011;38013;48.810;8.818;2023-05-08T05:13:32;8.18;;;4.10;;
50547;SDS011;38013;48.810;8.818;2023-05-08T05:15:59;5.97;;;4.13;;
50547;SDS011;38013;48.810;8.818;2023-05-08T05:18:26;6.05;;;3.88;;
50547;SDS011;38013;48.810;8.818;2023-05-08T05:20:56;5.50;;;4.20;;
50547;SDS011;38013;48.810;8.818;2023-05-08T05:23:24;6.70;;;4.47;;
50547;SDS011;38013;48.810;8.818;2023-05-08T05:25:51;6.05;;;4.45;;
50547;SDS011;38013;48.810;8.818;2023-05-08T05:28:18;6.38;;;4.32;;
50547;SDS011;38013;48.810;8.818;2023-05-08T05:30:46;9.73;;;4.20;;
50547;SDS011;38013;48.810;8.818;2023-05-08T05:33:13;7.28;;;4.93;;
50547;SDS011;38013;48.810;8.818;2023-05-08T05:35:40;7.25;;;5.50;;
50547;SDS011;38013;48.810;8.818;2023-05-08T05:38:07;7.45;;;4.20;;
50547;SDS011;38013;48.810;8.818;2023-05-08T05:40:34;6.93;;;4.93;;
50547;SDS011;38013;48.810;8.818;2023-05-08T05:43:01;6.68;;;4.95;;
50547;SDS011;38013;48.810;8.818;2023-05-08T05:45:28;6.90;;;4.95;;
50547;SDS011;38013;48.810;8.818;2023-05-08T05:47:58;8.13;;;5.40;;
50547;SDS011;38013;48.810;8.818;2023-05-08T05:50:26;7.20;;;5.28;;
50547;SDS011;38013;48.810;8.818;2023-05-08T05:52:54;8.43;;;4.93;;
50547;SDS011;38013;48.810;8.818;2023-05-08T05:55:21;6.85;;;5.47;;
50547;SDS011;38013;48.810;8.818;2023-05-08T05:57:49;7.33;;;5.23;;
50547;SDS011;38013;48.810;8.818;2023-05-08T06:00:16;6.82;;;5.40;;
50547;SDS011;38013;48.810;8.818;2023-05-08T06:02:48;8.38;;;5.53;;
50547;SDS011;38013;48.810;8.818;2023-05-08T06:05:16;7.03;;;5.22;;
50547;SDS011;38013;48.810;8.818;2023-05-08T06:07:44;8.02;;;5.32;;
50547;SDS011;38013;48.810;8.818;2023-05-08T06:10:11;6.72;;;5.07;;
50547;SDS011;38013;48.810;8.818;2023-05-08T06:12:38;6.32;;;4.80;;
50547;SDS011;38013;48.810;8.818;2023-05-08T06:15:06;8.43;;;5.80;;
50547;SDS011;38013;48.810;8.818;2023-05-08T06:17:34;7.82;;;5.97;;
50547;SDS011;38013;48.810;8.818;2023-05-08T06:20:01;7.82;;;6.35;;
50547;SDS011;38013;48.810;8.818;2023-05-08T06:22:29;8.45;;;6.20;;
50547;SDS011;38013;48.810;8.818;2023-05-08T06:24:56;9.32;;;6.82;;
50547;SDS011;38013;48.810;8.818;2023-05-08T06:27:23;8.75;;;6.72;;
50547;SDS011;38013;48.810;8.818;2023-05-08T06:29:50;11.25;;;7.07;;
50547;SDS011;38013;48.810;8.818;2023-05-08T06:32:18;9.40;;;6.72;;
50547;SDS011;38013;48.810;8.818;2023-05-08T06:34:46;9.75;;;7.55;;
50547;SDS011;38013;48.810;8.818;2023-05-08T06:37:13;10.10;;;6.90;;
50547;SDS011;38013;48.810;8.818;2023-05-08T06:39:40;9.93;;;6.97;;
50547;SDS011;38013;48.810;8.818;2023-05-08T06:42:07;8.40;;;6.38;;
50547;SDS011;38013;48.810;8.818;2023-05-08T06:44:37;8.27;;;6.07;;
50547;SDS011;38013;48.810;8.818;2023-05-08T06:47:05;9.95;;;6.65;;
50547;SDS011;38013;48.810;8.818;2023-05-08T06:49:36;8.50;;;6.60;;
50547;SDS011;38013;48.810;8.818;2023-05-08T06:54:30;14.23;;;10.05;;
50547;SDS011;38013;48.810;8.818;2023-05-08T06:56:57;16.17;;;10.70;;
50547;SDS011;38013;48.810;8.818;2023-05-08T06:59:23;16.25;;;12.52;;
50547;SDS011;38013;48.810;8.818;2023-05-08T07:01:50;16.45;;;12.95;;
50547;SDS011;38013;48.810;8.818;2023-05-08T07:04:17;15.48;;;12.43;;
50547;SDS011;38013;48.810;8.818;2023-05-08T07:06:44;18.33;;;13.48;;
50547;SDS011;38013;48.810;8.818;2023-05-08T07:09:11;18.00;;;11.43;;
50547;SDS011;38013;48.810;8.818;2023-05-08T07:11:38;17.17;;;12.80;;
50547;SDS011;38013;48.810;8.818;2023-05-08T07:14:05;17.73;;;12.80;;
50547;SDS011;38013;48.810;8.818;2023-05-08T07:16:32;17.95;;;12.73;;
50547;SDS011;38013;48.810;8.818;2023-05-08T07:18:59;20.95;;;13.50;;
50547;SDS011;38013;48.810;8.818;2023-05-08T07:21:26;16.52;;;12.57;;
50547;SDS011;38013;48.810;8.818;2023-05-08T07:23:54;14.95;;;11.43;;
50547;SDS011;38013;48.810;8.818;2023-05-08T07:26:21;14.82;;;11.80;;
50547;SDS011;38013;48.810;8.818;2023-05-08T07:28:48;14.07;;;10.95;;
50547;SDS011;38013;48.810;8.818;2023-05-08T07:31:16;12.98;;;9.77;;
50547;SDS011;38013;48.810;8.818;2023-05-08T07:33:42;14.52;;;10.18;;
50547;SDS011;38013;48.810;8.818;2023-05-08T07:36:09;11.02;;;8.40;;
50547;SDS011;38013;48.810;8.818;2023-05-08T07:38:37;12.25;;;8.70;;
50547;SDS011;38013;48.810;8.818;2023-05-08T07:41:03;12.77;;;8.88;;
50547;SDS011;38013;48.810;8.818;2023-05-08T07:43:31;13.68;;;9.93;;
50547;SDS011;38013;48.810;8.818;2023-05-08T07:45:58;11.82;;;9.13;;
50547;SDS011;38013;48.810;8.818;2023-05-08T07:48:25;13.85;;;9.77;;
50547;SDS011;38013;48.810;8.818;2023-05-08T07:50:52;11.77;;;9.20;;
50547;SDS011;38013;48.810;8.818;2023-05-08T07:53:19;10.70;;;8.63;;
50547;SDS011;38013;48.810;8.818;2023-05-08T07:55:46;14.23;;;9.52;;
50547;SDS011;38013;48.810;8.818;2023-05-08T07:58:13;9.60;;;7.72;;
50547;SDS011;38013;48.810;8.818;2023-05-08T08:00:39;10.48;;;7.88;;
50547;SDS011;38013;48.810;8.818;2023-05-08T08:03:06;8.88;;;6.95;;
50547;SDS011;38013;48.810;8.818;2023-05-08T08:05:33;9.85;;;6.15;;
50547;SDS011;38013;48.810;8.818;2023-05-08T08:08:00;9.55;;;6.35;;
50547;SDS011;38013;48.810;8.818;2023-05-08T08:10:27;7.00;;;5.13;;
50547;SDS011;38013;48.810;8.818;2023-05-08T08:12:54;7.45;;;5.43;;
50547;SDS011;38013;48.810;8.818;2023-05-08T08:15:21;8.18;;;6.18;;
50547;SDS011;38013;48.810;8.818;2023-05-08T08:17:48;8.45;;;6.18;;
50547;SDS011;38013;48.810;8.818;2023-05-08T08:20:15;9.93;;;6.03;;
50547;SDS011;38013;48.810;8.818;2023-05-08T08:22:42;8.60;;;5.97;;
50547;SDS011;38013;48.810;8.818;2023-05-08T08:25:09;9.25;;;6.45;;
50547;SDS011;38013;48.810;8.818;2023-05-08T08:27:36;8.00;;;6.03;;
50547;SDS011;38013;48.810;8.818;2023-05-08T08:30:03;8.00;;;6.53;;
50547;SDS011;38013;48.810;8.818;2023-05-08T08:32:43;9.35;;;6.57;;
50547;SDS011;38013;48.810;8.818;2023-05-08T08:35:10;7.93;;;5.93;;
50547;SDS011;38013;48.810;8.818;2023-05-08T08:37:37;7.40;;;6.07;;
50547;SDS011;38013;48.810;8.818;2023-05-08T08:40:04;6.85;;;4.85;;
50547;SDS011;38013;48.810;8.818;2023-05-08T08:42:32;7.60;;;5.35;;
50547;SDS011;38013;48.810;8.818;2023-05-08T08:44:59;11.18;;;5.88;;
50547;SDS011;38013;48.810;8.818;2023-05-08T08:47:27;6.75;;;5.25;;
50547;SDS011;38013;48.810;8.818;2023-05-08T08:49:56;7.85;;;5.13;;
50547;SDS011;38013;48.810;8.818;2023-05-08T08:55:19;70.38;;;9.43;;
50547;SDS011;38013;48.810;8.818;2023-05-08T08:57:59;6.78;;;4.63;;
50547;SDS011;38013;48.810;8.818;2023-05-08T09:00:46;8.13;;;4.88;;
50547;SDS011;38013;48.810;8.818;2023-05-08T09:03:15;6.60;;;4.45;;
50547;SDS011;38013;48.810;8.818;2023-05-08T09:05:42;7.85;;;4.97;;
50547;SDS011;38013;48.810;8.818;2023-05-08T09:08:10;7.40;;;4.50;;
50547;SDS011;38013;48.810;8.818;2023-05-08T09:10:37;8.55;;;3.97;;
50547;SDS011;38013;48.810;8.818;2023-05-08T09:13:04;10.00;;;4.38;;
50547;SDS011;38013;48.810;8.818;2023-05-08T09:15:32;6.15;;;4.00;;
50547;SDS011;38013;48.810;8.818;2023-05-08T09:18:02;6.75;;;4.00;;
50547;SDS011;38013;48.810;8.818;2023-05-08T09:20:29;7.05;;;4.25;;
50547;SDS011;38013;48.810;8.818;2023-05-08T09:22:56;7.70;;;4.40;;
50547;SDS011;38013;48.810;8.818;2023-05-08T09:25:39;6.10;;;4.05;;
50547;SDS011;38013;48.810;8.818;2023-05-08T09:28:29;5.80;;;4.10;;
50547;SDS011;38013;48.810;8.818;2023-05-08T09:30:56;7.00;;;4.60;;
50547;SDS011;38013;48.810;8.818;2023-05-08T09:33:25;7.70;;;4.57;;
50547;SDS011;38013;48.810;8.818;2023-05-08T09:35:54;5.60;;;4.05;;
50547;SDS011;38013;48.810;8.818;2023-05-08T09:41:07;5.22;;;4.15;;
50547;SDS011;38013;48.810;8.818;2023-05-08T09:43:43;5.38;;;4.25;;
50547;SDS011;38013;48.810;8.818;2023-05-08T09:46:25;9.98;;;4.30;;
50547;SDS011;38013;48.810;8.818;2023-05-08T09:48:53;6.28;;;3.55;;
50547;SDS011;38013;48.810;8.818;2023-05-08T09:51:25;4.50;;;3.45;;
50547;SDS011;38013;48.810;8.818;2023-05-08T09:53:55;5.55;;;3.88;;
50547;SDS011;38013;48.810;8.818;2023-05-08T09:56:34;89.53;;;9.27;;
50547;SDS011;38013;48.810;8.818;2023-05-08T09:59:04;9.23;;;3.95;;
50547;SDS011;38013;48.810;8.818;2023-05-08T10:01:48;7.75;;;3.40;;
50547;SDS011;38013;48.810;8.818;2023-05-08T10:04:15;4.40;;;2.92;;
50547;SDS011;38013;48.810;8.818;2023-05-08T10:06:42;31.70;;;5.05;;
50547;SDS011;38013;48.810;8.818;2023-05-08T10:09:10;5.90;;;3.65;;
50547;SDS011;38013;48.810;8.818;2023-05-08T10:11:41;8.00;;;3.05;;
50547;SDS011;38013;48.810;8.818;2023-05-08T10:14:20;15.75;;;3.47;;
50547;SDS011;38013;48.810;8.818;2023-05-08T10:16:49;7.32;;;2.22;;
50547;SDS011;38013;48.810;8.818;2023-05-08T10:19:19;8.57;;;2.13;;
50547;SDS011;38013;48.810;8.818;2023-05-08T10:21:49;9.60;;;1.95;;
50547;SDS011;38013;48.810;8.818;2023-05-08T10:24:19;4.43;;;1.88;;
50547;SDS011;38013;48.810;8.818;2023-05-08T10:27:08;5.63;;;1.67;;
50547;SDS011;38013;48.810;8.818;2023-05-08T10:29:46;3.95;;;2.20;;
50547;SDS011;38013;48.810;8.818;2023-05-08T10:32:22;3.38;;;2.22;;
50547;SDS011;38013;48.810;8.818;2023-05-08T10:34:55;4.00;;;1.90;;
50547;SDS011;38013;48.810;8.818;2023-05-08T10:37:24;3.67;;;2.17;;
50547;SDS011;38013;48.810;8.818;2023-05-08T10:39:56;3.33;;;2.28;;
50547;SDS011;38013;48.810;8.818;2023-05-08T10:42:24;3.67;;;2.47;;
50547;SDS011;38013;48.810;8.818;2023-05-08T10:44:51;3.78;;;2.60;;
50547;SDS011;38013;48.810;8.818;2023-05-08T10:47:56;3.20;;;2.30;;
50547;SDS011;38013;48.810;8.818;2023-05-08T10:53:45;3.70;;;2.50;;
50547;SDS011;38013;48.810;8.818;2023-05-08T10:58:43;4.38;;;2.67;;
50547;SDS011;38013;48.810;8.818;2023-05-08T11:01:10;4.53;;;3.00;;
50547;SDS011;38013;48.810;8.818;2023-05-08T11:03:39;4.82;;;2.88;;
50547;SDS011;38013;48.810;8.818;2023-05-08T11:06:11;4.20;;;2.67;;
50547;SDS011;38013;48.810;8.818;2023-05-08T11:08:43;4.28;;;2.80;;
50547;SDS011;38013;48.810;8.818;2023-05-08T11:11:19;4.60;;;3.15;;
50547;SDS011;38013;48.810;8.818;2023-05-08T11:13:59;4.85;;;2.85;;
50547;SDS011;38013;48.810;8.818;2023-05-08T11:19:19;5.50;;;2.70;;
50547;SDS011;38013;48.810;8.818;2023-05-08T11:27:14;3.85;;;2.08;;
50547;SDS011;38013;48.810;8.818;2023-05-08T11:29:41;4.05;;;2.33;;
50547;SDS011;38013;48.810;8.818;2023-05-08T11:32:10;6.55;;;2.60;;
50547;SDS011;38013;48.810;8.818;2023-05-08T11:39:44;4.65;;;2.40;;
50547;SDS011;38013;48.810;8.818;2023-05-08T11:45:02;3.60;;;2.60;;
50547;SDS011;38013;48.810;8.818;2023-05-08T11:47:43;4.32;;;3.13;;
50547;SDS011;38013;48.810;8.818;2023-05-08T11:50:11;5.32;;;3.00;;
50547;SDS011;38013;48.810;8.818;2023-05-08T11:52:40;8.73;;;3.65;;
50547;SDS011;38013;48.810;8.818;2023-05-08T11:55:09;6.43;;;3.20;;
50547;SDS011;38013;48.810;8.818;2023-05-08T11:57:37;4.97;;;3.10;;
50547;SDS011;38013;48.810;8.818;2023-05-08T12:00:07;5.25;;;2.80;;
50547;SDS011;38013;48.810;8.818;2023-05-08T12:02:37;3.85;;;2.30;;
50547;SDS011;38013;48.810;8.818;2023-05-08T12:07:41;4.45;;;1.83;;
50547;SDS011;38013;48.810;8.818;2023-05-08T12:10:09;6.13;;;2.10;;
50547;SDS011;38013;48.810;8.818;2023-05-08T12:12:38;4.05;;;2.40;;
50547;SDS011;38013;48.810;8.818;2023-05-08T12:15:07;6.03;;;2.13;;
50547;SDS011;38013;48.810;8.818;2023-05-08T12:17:37;4.30;;;1.90;;
50547;SDS011;38013;48.810;8.818;2023-05-08T12:20:14;4.40;;;2.35;;
50547;SDS011;38013;48.810;8.818;2023-05-08T12:22:50;4.13;;;2.40;;
50547;SDS011;38013;48.810;8.818;2023-05-08T12:25:18;4.13;;;2.25;;
50547;SDS011;38013;48.810;8.818;2023-05-08T12:27:45;3.92;;;2.38;;
50547;SDS011;38013;48.810;8.818;2023-05-08T12:30:13;3.78;;;2.22;;
50547;SDS011;38013;48.810;8.818;2023-05-08T12:32:42;4.13;;;2.47;;
50547;SDS011;38013;48.810;8.818;2023-05-08T12:35:10;4.47;;;2.60;;
50547;SDS011;38013;48.810;8.818;2023-05-08T12:37:38;4.18;;;2.80;;
50547;SDS011;38013;48.810;8.818;2023-05-08T12:40:06;5.13;;;3.00;;
50547;SDS011;38013;48.810;8.818;2023-05-08T12:42:49;3.95;;;3.00;;
50547;SDS011;38013;48.810;8.818;2023-05-08T12:45:23;5.70;;;3.20;;
50547;SDS011;38013;48.810;8.818;2023-05-08T12:47:53;3.90;;;2.92;;
50547;SDS011;38013;48.810;8.818;2023-05-08T12:50:32;4.97;;;3.47;;
50547;SDS011;38013;48.810;8.818;2023-05-08T12:53:08;5.70;;;3.33;;
50547;SDS011;38013;48.810;8.818;2023-05-08T12:55:45;5.43;;;3.28;;
50547;SDS011;38013;48.810;8.818;2023-05-08T12:58:24;4.25;;;3.08;;
50547;SDS011;38013;48.810;8.818;2023-05-08T13:01:09;4.73;;;2.87;;
50547;SDS011;38013;48.810;8.818;2023-05-08T13:03:38;5.10;;;3.15;;
50547;SDS011;38013;48.810;8.818;2023-05-08T13:06:06;5.43;;;3.25;;
50547;SDS011;38013;48.810;8.818;2023-05-08T13:08:51;8.82;;;5.18;;
50547;SDS011;38013;48.810;8.818;2023-05-08T13:11:29;6.20;;;5.10;;
50547;SDS011;38013;48.810;8.818;2023-05-08T13:13:58;9.13;;;5.97;;
50547;SDS011;38013;48.810;8.818;2023-05-08T13:16:25;7.55;;;5.68;;
50547;SDS011;38013;48.810;8.818;2023-05-08T13:18:52;9.43;;;5.90;;
50547;SDS011;38013;48.810;8.818;2023-05-08T13:21:19;7.75;;;5.60;;
50547;SDS011;38013;48.810;8.818;2023-05-08T13:23:46;8.63;;;5.82;;
50547;SDS011;38013;48.810;8.818;2023-05-08T13:26:12;8.07;;;6.15;;
50547;SDS011;38013;48.810;8.818;2023-05-08T13:28:39;8.68;;;5.70;;
50547;SDS011;38013;48.810;8.818;2023-05-08T13:31:06;7.20;;;5.78;;
50547;SDS011;38013;48.810;8.818;2023-05-08T13:33:33;7.80;;;6.10;;
50547;SDS011;38013;48.810;8.818;2023-05-08T13:36:00;9.25;;;6.25;;
50547;SDS011;38013;48.810;8.818;2023-05-08T13:38:27;9.68;;;5.93;;
50547;SDS011;38013;48.810;8.818;2023-05-08T13:40:54;8.73;;;5.95;;
50547;SDS011;38013;48.810;8.818;2023-05-08T13:43:21;8.30;;;5.68;;
50547;SDS011;38013;48.810;8.818;2023-05-08T13:45:48;8.55;;;6.60;;
50547;SDS011;38013;48.810;8.818;2023-05-08T13:48:14;10.75;;;7.00;;
50547;SDS011;38013;48.810;8.818;2023-05-08T13:50:41;9.93;;;6.82;;
50547;SDS011;38013;48.810;8.818;2023-05-08T13:53:08;8.07;;;6.32;;
50547;SDS011;38013;48.810;8.818;2023-05-08T13:55:35;8.68;;;6.07;;
50547;SDS011;38013;48.810;8.818;2023-05-08T13:58:02;9.25;;;7.00;;
50547;SDS011;38013;48.810;8.818;2023-05-08T14:00:29;8.50;;;6.60;;
50547;SDS011;38013;48.810;8.818;2023-05-08T14:02:56;8.18;;;6.43;;
50547;SDS011;38013;48.810;8.818;2023-05-08T14:05:23;8.65;;;6.70;;
50547;SDS011;38013;48.810;8.818;2023-05-08T14:07:50;9.07;;;6.63;;
50547;SDS011;38013;48.810;8.818;2023-05-08T14:10:16;8.77;;;6.95;;
50547;SDS011;38013;48.810;8.818;2023-05-08T14:12:43;8.95;;;6.32;;
50547;SDS011;38013;48.810;8.818;2023-05-08T14:15:11;9.88;;;6.70;;
50547;SDS011;38013;48.810;8.818;2023-05-08T14:17:38;8.07;;;6.47;;
50547;SDS011;38013;48.810;8.818;2023-05-08T14:20:07;8.73;;;6.47;;
50547;SDS011;38013;48.810;8.818;2023-05-08T14:22:37;8.55;;;6.20;;
50547;SDS011;38013;48.810;8.818;2023-05-08T14:25:04;9.27;;;6.05;;
50547;SDS011;38013;48.810;8.818;2023-05-08T14:27:32;8.30;;;6.43;;
50547;SDS011;38013;48.810;8.818;2023-05-08T14:29:58;8.82;;;6.78;;
50547;SDS011;38013;48.810;8.818;2023-05-08T14:32:25;10.90;;;7.60;;
50547;SDS011;38013;48.810;8.818;2023-05-08T14:34:52;9.48;;;7.25;;
50547;SDS011;38013;48.810;8.818;2023-05-08T14:37:19;10.18;;;7.63;;
50547;SDS011;38013;48.810;8.818;2023-05-08T14:39:46;9.70;;;7.35;;
50547;SDS011;38013;48.810;8.818;2023-05-08T14:42:13;9.90;;;8.02;;
50547;SDS011;38013;48.810;8.818;2023-05-08T14:44:48;10.00;;;8.23;;
50547;SDS011;38013;48.810;8.818;2023-05-08T14:47:16;10.32;;;7.97;;
50547;SDS011;38013;48.810;8.818;2023-05-08T14:49:43;10.90;;;8.45;;
50547;SDS011;38013;48.810;8.818;2023-05-08T14:52:10;10.05;;;7.68;;
50547;SDS011;38013;48.810;8.818;2023-05-08T14:54:36;13.98;;;9.13;;
50547;SDS011;38013;48.810;8.818;2023-05-08T14:57:04;11.02;;;8.65;;
50547;SDS011;38013;48.810;8.818;2023-05-08T14:59:31;11.27;;;8.95;;
50547;SDS011;38013;48.810;8.818;2023-05-08T15:01:58;11.45;;;9.32;;
50547;SDS011;38013;48.810;8.818;2023-05-08T15:04:25;10.88;;;8.27;;
50547;SDS011;38013;48.810;8.818;2023-05-08T15:06:52;11.30;;;9.23;;
50547;SDS011;38013;48.810;8.818;2023-05-08T15:09:18;11.88;;;8.57;;
50547;SDS011;38013;48.810;8.818;2023-05-08T15:11:45;11.68;;;9.35;;
50547;SDS011;38013;48.810;8.818;2023-05-08T15:14:12;11.95;;;9.35;;
50547;SDS011;38013;48.810;8.818;2023-05-08T15:16:39;12.68;;;9.13;;
50547;SDS011;38013;48.810;8.818;2023-05-08T15:19:06;10.88;;;8.63;;
50547;SDS011;38013;48.810;8.818;2023-05-08T15:21:34;12.50;;;9.52;;
50547;SDS011;38013;48.810;8.818;2023-05-08T15:24:01;13.52;;;9.48;;
50547;SDS011;38013;48.810;8.818;2023-05-08T15:26:28;11.85;;;8.60;;
50547;SDS011;38013;48.810;8.818;2023-05-08T15:28:55;10.63;;;9.05;;
50547;SDS011;38013;48.810;8.818;2023-05-08T15:31:22;11.48;;;8.90;;
50547;SDS011;38013;48.810;8.818;2023-05-08T15:33:49;11.63;;;9.45;;
50547;SDS011;38013;48.810;8.818;2023-05-08T15:36:16;11.82;;;9.20;;
50547;SDS011;38013;48.810;8.818;2023-05-08T15:38:42;14.68;;;9.07;;
50547;SDS011;38013;48.810;8.818;2023-05-08T15:41:09;14.68;;;9.88;;
50547;SDS011;38013;48.810;8.818;2023-05-08T15:43:40;11.20;;;9.05;;
50547;SDS011;38013;48.810;8.818;2023-05-08T15:46:08;12.93;;;10.02;;
50547;SDS011;38013;48.810;8.818;2023-05-08T15:48:36;12.55;;;7.90;;
50547;SDS011;38013;48.810;8.818;2023-05-08T15:51:03;11.77;;;7.82;;
50547;SDS011;38013;48.810;8.818;2023-05-08T15:53:31;12.07;;;8.73;;
50547;SDS011;38013;48.810;8.818;2023-05-08T15:55:59;10.50;;;8.85;;
50547;SDS011;38013;48.810;8.818;2023-05-08T15:58:26;10.90;;;8.57;;
50547;SDS011;38013;48.810;8.818;2023-05-08T16:00:53;9.45;;;7.97;;